This is the latest recevied weather packets stored in our database for station/object K0CVS. If no packets are shown the sender has not sent any weather packets the latest 10 day(s).
| Time | Temp. | Humidity | Pressure | Rain* | Wind** | Luminosity | Snow |
|---|---|---|---|---|---|---|---|
| 1777995788 | 8.33° C | 87% | 1013.4 hPa | 0 mm | - | 27 W/m² | - |
| 1777995485 | 8.33° C | 87% | 1013.2 hPa | 0 mm | - | 32 W/m² | - |
| 1777995182 | 8.89° C | 88% | 1013.6 hPa | 0 mm | - | 24 W/m² | - |
| 1777994879 | 8.89° C | 90% | 1012.6 hPa | 0 mm | - | 46 W/m² | - |
| 1777994575 | 8.89° C | 89% | 1012.6 hPa | 0 mm | - | 41 W/m² | - |
| 1777994270 | 8.89° C | 89% | 1012.7 hPa | 0 mm | - | 41 W/m² | - |
| 1777993968 | 8.89° C | 89% | 1012.7 hPa | 0 mm | - | 46 W/m² | - |
| 1777993664 | 8.89° C | 90% | 1012.7 hPa | 0 mm | - | 54 W/m² | - |
| 1777993362 | 8.89° C | 91% | 1012.7 hPa | 0 mm | - | 47 W/m² | - |
| 1777993061 | 8.89° C | 90% | 1012.9 hPa | 0 mm | - | 34 W/m² | - |
| 1777992760 | 8.89° C | 91% | 1012.2 hPa | 0 mm | - | 38 W/m² | - |
| 1777992457 | 8.89° C | 90% | 1012.4 hPa | 0 mm | - | 42 W/m² | - |
| 1777992156 | 8.89° C | 91% | 1012.6 hPa | 0 mm | - | 26 W/m² | - |
| 1777991852 | 8.89° C | 91% | 1012.5 hPa | 0 mm | - | 54 W/m² | - |
| 1777991550 | 8.89° C | 91% | 1012.1 hPa | 0 mm | - | 49 W/m² | - |
| 1777991246 | 8.89° C | 91% | 1012.6 hPa | 0 mm | - | 30 W/m² | - |
| 1777990944 | 8.89° C | 91% | 1012.8 hPa | 0 mm | - | 29 W/m² | - |
| 1777990642 | 8.89° C | 91% | 1012.9 hPa | 1.78 mm | - | 35 W/m² | - |
| 1777990338 | 8.89° C | 91% | 1012.4 hPa | 0 mm | - | 52 W/m² | - |
| 1777990034 | 8.89° C | 91% | 1012.3 hPa | 0 mm | - | 27 W/m² | - |
| 1777989731 | 8.89° C | 91% | 1012 hPa | 0 mm | - | 47 W/m² | - |
| 1777989428 | 8.89° C | 90% | 1012.5 hPa | 0 mm | - | 22 W/m² | - |
| 1777989124 | 8.89° C | 90% | 1012.3 hPa | 0 mm | - | 20 W/m² | - |
| 1777988820 | 8.89° C | 90% | 1012.4 hPa | 0 mm | - | 16 W/m² | - |
| 1777988518 | 8.89° C | 89% | 1012.4 hPa | 0 mm | - | 13 W/m² | - |
* Rain latest hour (hover to see other rain measurements)
** Current wind speed in m/s (hover to see current wind gust speed)